createdAt,value
2022-11-24T12:27:24.000Z,25.23
2022-11-24T12:32:50.765Z,13.50
2022-11-24T12:38:14.343Z,13.50
2022-11-24T12:43:40.936Z,14.23
2022-11-24T12:48:45.817Z,17.42
2022-11-24T12:53:51.065Z,15.40
2022-11-24T12:58:58.822Z,13.68
2022-11-24T13:04:12.034Z,15.60
2022-11-24T13:09:14.496Z,13.60
2022-11-24T13:14:23.490Z,15.27
2022-11-24T13:19:32.812Z,14.43
2022-11-24T13:24:37.636Z,13.10
2022-11-24T13:29:40.924Z,16.45
2022-11-24T13:40:02.655Z,14.93
2022-11-24T13:45:25.620Z,16.88
2022-11-24T13:51:02.823Z,17.02
2022-11-24T13:56:07.459Z,16.50
2022-11-24T14:01:09.475Z,15.27
2022-11-24T14:06:31.105Z,16.42
2022-11-24T14:11:33.133Z,15.63
2022-11-24T14:16:35.128Z,15.63
2022-11-24T14:21:42.614Z,15.05
2022-11-24T14:26:47.742Z,15.45
2022-11-24T14:31:58.066Z,16.73
2022-11-24T14:37:01.754Z,14.40
2022-11-24T14:42:22.380Z,15.93
2022-11-24T14:47:32.536Z,16.63
2022-11-24T14:52:35.741Z,11.25
2022-11-24T14:57:40.726Z,13.20
2022-11-24T15:02:52.351Z,15.20
2022-11-24T15:08:03.339Z,13.25
2022-11-24T15:13:20.144Z,13.68
2022-11-24T15:18:33.980Z,15.07
2022-11-24T15:23:37.075Z,15.45
2022-11-24T15:33:41.860Z,14.57
2022-11-24T15:38:43.916Z,15.05
2022-11-24T15:43:46.170Z,17.50
2022-11-24T15:48:48.236Z,14.25
2022-11-24T15:53:57.100Z,15.00
2022-11-24T15:59:01.974Z,17.00
2022-11-24T16:09:05.989Z,18.13
2022-11-24T16:14:08.454Z,20.90
2022-11-24T16:19:11.094Z,23.50
2022-11-24T16:24:13.218Z,19.60
2022-11-24T16:29:17.033Z,23.60
2022-11-24T16:34:19.454Z,21.42
2022-11-24T16:39:21.947Z,20.02
2022-11-24T16:44:24.431Z,19.38
2022-11-24T16:49:26.445Z,20.73
2022-11-24T16:54:28.524Z,17.88
2022-11-24T16:59:30.995Z,19.80
2022-11-24T17:04:33.197Z,15.95
2022-11-24T17:09:40.371Z,15.57
2022-11-24T17:14:44.315Z,16.02
2022-11-24T17:19:51.065Z,16.23
2022-11-24T17:24:53.241Z,15.38
2022-11-24T17:29:55.647Z,17.73
2022-11-24T17:34:58.215Z,16.55
2022-11-24T17:40:26.874Z,16.83
2022-11-24T17:45:23.215Z,15.95
2022-11-24T17:50:26.612Z,20.08
2022-11-24T17:55:28.860Z,18.10
2022-11-24T18:00:31.375Z,17.52
2022-11-24T18:05:37.435Z,16.75
2022-11-24T18:10:40.149Z,16.30
2022-11-24T18:15:43.611Z,16.13
2022-11-24T18:20:55.027Z,15.40
2022-11-24T18:26:00.110Z,15.18
2022-11-24T18:31:09.236Z,17.98
2022-11-24T18:36:14.977Z,19.63
2022-11-24T18:41:17.846Z,24.35
2022-11-24T18:46:20.538Z,24.95
2022-11-24T18:51:23.867Z,18.67
2022-11-24T19:01:33.001Z,21.52
2022-11-24T19:06:37.497Z,19.95
2022-11-24T19:11:42.953Z,17.73
2022-11-24T19:16:49.529Z,17.40
2022-11-24T19:21:52.305Z,17.98
2022-11-24T19:26:55.807Z,17.75
2022-11-24T19:31:58.492Z,17.83
2022-11-24T19:37:01.796Z,16.33
2022-11-24T19:42:05.053Z,22.67
2022-11-24T19:47:07.126Z,22.08
2022-11-24T19:52:09.784Z,19.55
2022-11-24T19:57:13.105Z,22.25
2022-11-24T20:02:15.771Z,21.67
2022-11-24T20:07:21.175Z,17.83
2022-11-24T20:12:23.275Z,19.42
2022-11-24T20:17:25.798Z,18.60
2022-11-24T20:22:28.406Z,17.17
2022-11-24T20:27:30.476Z,15.20
2022-11-24T20:32:32.901Z,19.25
2022-11-24T20:42:56.785Z,23.30
2022-11-24T20:47:59.307Z,23.50
2022-11-24T20:53:02.183Z,25.08
